createdAt,value
2022-10-30T00:01:41.491Z,99184.88
2022-10-30T00:04:08.417Z,99192.94
2022-10-30T00:06:35.200Z,99195.34
2022-10-30T00:09:02.180Z,99196.66
2022-10-30T00:11:29.549Z,99198.59
2022-10-30T00:13:56.353Z,99203.78
2022-10-30T00:16:23.446Z,99196.09
2022-10-30T00:18:50.411Z,99195.16
2022-10-30T00:21:17.224Z,99186.41
2022-10-30T00:23:48.260Z,99190.72
2022-10-30T00:26:16.113Z,99191.59
2022-10-30T00:28:43.094Z,99181.78
2022-10-30T00:31:10.374Z,99184.38
2022-10-30T00:33:37.241Z,99179.03
2022-10-30T00:36:04.225Z,99184.09
2022-10-30T00:38:32.120Z,99180.50
2022-10-30T00:40:58.971Z,99174.28
2022-10-30T00:43:39.541Z,99171.56
2022-10-30T00:46:21.557Z,99176.00
2022-10-30T00:48:57.072Z,99180.44
2022-10-30T00:51:25.295Z,99180.78
2022-10-30T00:53:53.199Z,99186.97
2022-10-30T00:56:22.052Z,99185.56
2022-10-30T00:58:55.441Z,99176.06
2022-10-30T01:01:26.118Z,99182.00
2022-10-30T01:03:57.776Z,99188.16
2022-10-30T01:06:25.156Z,99189.94
2022-10-30T01:08:58.785Z,99194.22
2022-10-30T01:11:27.265Z,99192.41
2022-10-30T01:13:58.016Z,99191.63
2022-10-30T01:17:02.359Z,99194.00
2022-10-30T01:19:48.572Z,99181.63
2022-10-30T01:22:24.354Z,99191.97
2022-10-30T01:25:11.032Z,99188.47
2022-10-30T01:27:58.160Z,99189.25
2022-10-30T01:30:27.952Z,99186.53
2022-10-30T01:33:06.964Z,99187.84
2022-10-30T01:35:36.786Z,99177.38
2022-10-30T01:38:10.466Z,99173.00
2022-10-30T01:40:37.960Z,99171.97
2022-10-30T01:43:04.823Z,99166.41
2022-10-30T01:46:19.018Z,99174.41
2022-10-30T01:49:07.507Z,99167.34
2022-10-30T01:51:43.179Z,99151.47
2022-10-30T01:54:45.632Z,99164.69
2022-10-30T01:57:30.934Z,99154.34
2022-10-30T02:00:13.893Z,99155.81
2022-10-30T02:02:42.665Z,99162.13
2022-10-30T02:05:14.667Z,99161.56
2022-10-30T02:07:41.423Z,99169.56
2022-10-30T02:10:08.493Z,99167.88
2022-10-30T02:12:35.552Z,99166.13
2022-10-30T02:15:02.745Z,99167.31
2022-10-30T02:17:29.853Z,99166.59
2022-10-30T02:19:56.920Z,99157.03
2022-10-30T02:22:25.003Z,99168.56
2022-10-30T02:24:51.895Z,99180.78
2022-10-30T02:27:18.956Z,99172.84
2022-10-30T02:29:45.740Z,99173.47
2022-10-30T02:32:12.551Z,99177.66
2022-10-30T02:34:39.609Z,99167.94
2022-10-30T02:37:06.431Z,99175.94
2022-10-30T02:39:33.227Z,99173.53
2022-10-30T02:42:02.083Z,99170.25
2022-10-30T02:44:29.135Z,99182.47
2022-10-30T02:46:55.970Z,99178.81
2022-10-30T02:49:22.953Z,99182.00
2022-10-30T02:51:49.748Z,99173.28
2022-10-30T02:54:16.518Z,99168.88
2022-10-30T02:56:43.598Z,99176.66
2022-10-30T02:59:10.514Z,99173.38
2022-10-30T03:01:37.403Z,99173.16
2022-10-30T03:04:04.679Z,99174.06
2022-10-30T03:06:31.469Z,99167.72
2022-10-30T03:08:58.384Z,99174.78
2022-10-30T03:11:25.439Z,99173.78
2022-10-30T03:13:52.385Z,99174.84
2022-10-30T03:16:22.645Z,99167.25
2022-10-30T03:18:51.477Z,99152.59
2022-10-30T03:21:21.458Z,99139.38
2022-10-30T03:23:50.666Z,99151.69
2022-10-30T03:26:18.619Z,99152.03
2022-10-30T03:28:45.830Z,99153.16
2022-10-30T03:31:16.178Z,99157.88
2022-10-30T03:33:43.810Z,99158.72
2022-10-30T03:36:13.225Z,99156.16
2022-10-30T03:38:40.125Z,99149.94
2022-10-30T03:41:07.322Z,99151.88
2022-10-30T03:43:34.665Z,99146.63
2022-10-30T03:46:01.560Z,99152.94
2022-10-30T03:48:30.671Z,99147.66
2022-10-30T03:50:58.687Z,99137.13
2022-10-30T03:53:26.558Z,99132.34
2022-10-30T03:55:56.998Z,99125.75
2022-10-30T03:58:24.002Z,99131.09
2022-10-30T04:00:50.843Z,99133.84
2022-10-30T04:03:17.633Z,99132.06
2022-10-30T04:05:44.683Z,99132.00
2022-10-30T04:08:13.746Z,99125.75
2022-10-30T04:10:47.411Z,99126.47
2022-10-30T04:13:16.408Z,99133.47
2022-10-30T04:15:43.572Z,99130.88
2022-10-30T04:18:13.984Z,99131.66
2022-10-30T04:20:40.977Z,99139.53
2022-10-30T04:23:12.486Z,99130.53
2022-10-30T04:25:39.244Z,99130.53
2022-10-30T04:28:06.454Z,99137.50
2022-10-30T04:30:35.433Z,99148.97
2022-10-30T04:33:04.084Z,99135.66
2022-10-30T04:35:33.695Z,99139.06
2022-10-30T04:38:01.453Z,99142.78
2022-10-30T04:40:31.672Z,99140.03
2022-10-30T04:42:59.471Z,99130.44
2022-10-30T04:45:27.052Z,99137.44
2022-10-30T04:48:01.069Z,99133.78
2022-10-30T04:50:28.557Z,99123.28
2022-10-30T04:53:12.649Z,99133.84
2022-10-30T04:55:39.650Z,99133.16
2022-10-30T04:58:08.266Z,99128.88
2022-10-30T05:00:35.333Z,99135.25
2022-10-30T05:03:02.779Z,99140.78
2022-10-30T05:05:30.486Z,99127.56
2022-10-30T05:07:57.939Z,99131.09
2022-10-30T05:10:25.136Z,99135.72
2022-10-30T05:12:56.008Z,99140.16
2022-10-30T05:15:23.028Z,99145.34
2022-10-30T05:17:56.523Z,99139.13
2022-10-30T05:20:23.718Z,99137.34
2022-10-30T05:22:57.964Z,99144.34
2022-10-30T05:25:26.205Z,99151.19
2022-10-30T05:28:03.605Z,99152.97
2022-10-30T05:30:32.555Z,99152.81
2022-10-30T05:33:07.513Z,99151.81
2022-10-30T05:35:35.633Z,99158.91
2022-10-30T05:38:04.131Z,99144.75
2022-10-30T05:40:30.969Z,99150.81
2022-10-30T05:42:58.360Z,99134.78
2022-10-30T05:45:25.708Z,99145.38
2022-10-30T05:47:58.109Z,99143.50
2022-10-30T05:50:26.039Z,99149.50
2022-10-30T05:53:01.558Z,99148.50
2022-10-30T05:55:29.428Z,99142.28
2022-10-30T05:58:01.380Z,99146.47
2022-10-30T06:00:30.330Z,99157.78
2022-10-30T06:03:02.168Z,99166.47
2022-10-30T06:05:31.579Z,99168.13
2022-10-30T06:07:58.628Z,99173.25
2022-10-30T06:10:26.048Z,99173.03
2022-10-30T06:12:57.313Z,99171.94
2022-10-30T06:15:25.033Z,99177.94
2022-10-30T06:17:52.592Z,99182.16
2022-10-30T06:20:21.570Z,99178.59
2022-10-30T06:22:58.113Z,99168.00
2022-10-30T06:25:27.667Z,99175.59
2022-10-30T06:27:54.411Z,99176.78
2022-10-30T06:30:21.772Z,99184.56
2022-10-30T06:32:49.424Z,99184.78
2022-10-30T06:35:16.766Z,99190.81
2022-10-30T06:37:50.198Z,99181.91
2022-10-30T06:40:17.670Z,99186.13
2022-10-30T06:42:52.276Z,99192.97
2022-10-30T06:45:21.182Z,99189.25
2022-10-30T06:47:48.512Z,99192.75
2022-10-30T06:50:18.241Z,99200.44
2022-10-30T06:52:45.437Z,99192.34
2022-10-30T06:55:12.394Z,99202.84
2022-10-30T06:57:39.248Z,99198.41
2022-10-30T07:00:08.194Z,99198.34
2022-10-30T07:02:35.714Z,99201.78
2022-10-30T07:05:03.099Z,99211.50
2022-10-30T07:07:30.387Z,99208.16
2022-10-30T07:09:57.218Z,99202.19
2022-10-30T07:12:24.022Z,99210.25
2022-10-30T07:14:51.078Z,99217.34
2022-10-30T07:17:17.910Z,99214.69
2022-10-30T07:19:44.700Z,99216.50
2022-10-30T07:22:11.725Z,99217.34
2022-10-30T07:24:38.504Z,99219.22
2022-10-30T07:27:05.272Z,99212.22
2022-10-30T07:29:32.302Z,99214.78
2022-10-30T07:32:02.957Z,99210.72
2022-10-30T07:34:31.009Z,99221.84
2022-10-30T07:36:58.251Z,99216.50
2022-10-30T07:39:25.028Z,99214.00
2022-10-30T07:41:51.784Z,99203.75
2022-10-30T07:44:19.222Z,99215.97
2022-10-30T07:46:46.091Z,99210.69
2022-10-30T07:49:12.853Z,99194.03
2022-10-30T07:51:39.849Z,99175.50
2022-10-30T07:54:06.631Z,99176.28
2022-10-30T07:56:33.639Z,99178.81
2022-10-30T07:59:00.424Z,99172.34
2022-10-30T08:01:27.343Z,99177.28
2022-10-30T08:03:54.406Z,99187.53
2022-10-30T08:06:24.637Z,99189.38
2022-10-30T08:08:53.902Z,99192.19
2022-10-30T08:11:21.566Z,99193.28
2022-10-30T08:13:48.460Z,99195.16
2022-10-30T08:16:17.323Z,99182.69
2022-10-30T08:18:44.431Z,99191.50
2022-10-30T08:21:11.400Z,99184.25
2022-10-30T08:23:38.281Z,99194.53
2022-10-30T08:26:05.668Z,99199.38
2022-10-30T08:28:33.353Z,99187.91
2022-10-30T08:31:01.592Z,99201.16
2022-10-30T08:33:28.891Z,99217.91
2022-10-30T08:35:58.139Z,99217.81
2022-10-30T08:38:26.828Z,99225.78
2022-10-30T08:40:54.069Z,99215.06
2022-10-30T08:43:21.215Z,99212.59
2022-10-30T08:45:48.264Z,99214.94
2022-10-30T08:48:16.394Z,99213.16
2022-10-30T08:50:44.347Z,99211.34
2022-10-30T08:53:14.238Z,99205.81
2022-10-30T08:55:41.533Z,99218.03
2022-10-30T08:58:08.826Z,99208.22
2022-10-30T09:00:35.761Z,99213.69
2022-10-30T09:03:03.217Z,99214.00
2022-10-30T09:05:31.208Z,99220.38
2022-10-30T09:08:01.450Z,99211.66
2022-10-30T09:10:29.594Z,99210.66
2022-10-30T09:13:01.893Z,99220.47
2022-10-30T09:15:28.851Z,99214.28
2022-10-30T09:18:01.260Z,99210.81
2022-10-30T09:20:28.998Z,99216.81
2022-10-30T09:22:56.812Z,99217.41
2022-10-30T09:25:23.890Z,99220.84
2022-10-30T09:27:50.866Z,99220.69
2022-10-30T09:30:17.677Z,99221.69
2022-10-30T09:32:44.494Z,99204.19
2022-10-30T09:35:11.693Z,99193.59
2022-10-30T09:37:39.299Z,99192.63
2022-10-30T09:40:07.905Z,99197.19
2022-10-30T09:42:45.752Z,99192.81
2022-10-30T09:45:43.692Z,99182.28
2022-10-30T09:48:13.673Z,99175.91
2022-10-30T09:50:50.124Z,99163.97
2022-10-30T09:53:24.120Z,99164.25
2022-10-30T09:56:01.614Z,99173.44
2022-10-30T09:58:37.991Z,99188.59
2022-10-30T10:01:07.463Z,99179.72
2022-10-30T10:03:56.021Z,99178.59
2022-10-30T10:06:24.892Z,99179.63
2022-10-30T10:09:02.736Z,99174.03
2022-10-30T10:11:36.684Z,99179.59
2022-10-30T10:14:21.753Z,99175.38
2022-10-30T10:16:52.499Z,99175.97
2022-10-30T10:19:28.564Z,99174.75
2022-10-30T10:22:00.720Z,99174.94
2022-10-30T10:24:34.561Z,99178.72
2022-10-30T10:27:20.209Z,99174.72
2022-10-30T10:30:03.551Z,99165.41
2022-10-30T10:32:39.431Z,99164.69
2022-10-30T10:35:24.907Z,99169.06
2022-10-30T10:38:18.260Z,99174.53
2022-10-30T10:41:00.867Z,99170.28
2022-10-30T10:43:58.509Z,99168.53
2022-10-30T10:46:38.088Z,99174.81
2022-10-30T10:49:34.546Z,99156.38
2022-10-30T10:52:39.930Z,99166.50
2022-10-30T10:55:16.289Z,99172.78
2022-10-30T10:57:43.965Z,99163.06
2022-10-30T11:00:11.346Z,99171.94
2022-10-30T11:02:43.401Z,99166.75
2022-10-30T11:05:31.645Z,99154.50
2022-10-30T11:08:15.702Z,99149.56
2022-10-30T11:10:43.387Z,99148.09
2022-10-30T11:13:14.268Z,99160.69
2022-10-30T11:15:57.138Z,99173.81
2022-10-30T11:18:23.940Z,99172.66
2022-10-30T11:21:02.136Z,99174.44
2022-10-30T11:23:43.722Z,99157.75
2022-10-30T11:26:25.839Z,99161.34
2022-10-30T11:29:01.941Z,99167.84
2022-10-30T11:31:40.454Z,99156.38
2022-10-30T11:34:32.041Z,99162.69
2022-10-30T11:36:59.109Z,99166.13
2022-10-30T11:39:28.355Z,99172.13
2022-10-30T11:42:17.143Z,99172.03
2022-10-30T11:44:51.511Z,99168.19
2022-10-30T11:47:23.083Z,99161.44
2022-10-30T11:50:06.676Z,99148.94
2022-10-30T11:52:42.179Z,99133.28
2022-10-30T11:55:14.455Z,99128.56
2022-10-30T11:57:50.229Z,99120.91
2022-10-30T12:00:19.771Z,99125.03
2022-10-30T12:02:47.743Z,99116.97
2022-10-30T12:05:36.028Z,99124.41
2022-10-30T12:08:06.463Z,99133.84
2022-10-30T12:10:40.788Z,99127.31
2022-10-30T12:13:14.964Z,99126.38
2022-10-30T12:15:42.617Z,99128.25
2022-10-30T12:18:20.156Z,99127.28
2022-10-30T12:20:51.259Z,99134.22
2022-10-30T12:23:25.873Z,99121.84
2022-10-30T12:25:55.593Z,99122.38
2022-10-30T12:28:26.987Z,99119.75
2022-10-30T12:31:08.777Z,99126.91
2022-10-30T12:34:00.419Z,99124.81
2022-10-30T12:36:33.580Z,99124.75
2022-10-30T12:39:26.075Z,99111.53
2022-10-30T12:42:25.614Z,99096.56
2022-10-30T12:45:11.109Z,99097.94
2022-10-30T12:48:20.355Z,99104.16
2022-10-30T12:51:10.363Z,99103.28
2022-10-30T12:53:46.987Z,99105.59
2022-10-30T12:56:19.499Z,99112.81
2022-10-30T12:58:46.255Z,99102.53
2022-10-30T13:01:35.308Z,99099.56
2022-10-30T13:04:25.872Z,99096.06
2022-10-30T13:07:19.039Z,99112.66
2022-10-30T13:10:15.921Z,99118.03
2022-10-30T13:12:46.891Z,99118.94
2022-10-30T13:15:28.491Z,99117.22
2022-10-30T13:18:00.549Z,99119.31
2022-10-30T13:20:30.727Z,99128.47
2022-10-30T13:23:06.225Z,99126.38
2022-10-30T13:25:46.259Z,99127.81
2022-10-30T13:28:22.008Z,99125.63
2022-10-30T13:31:24.201Z,99127.00
2022-10-30T13:34:01.513Z,99121.91
2022-10-30T13:36:58.712Z,99117.56
2022-10-30T13:39:39.607Z,99108.56
2022-10-30T13:42:22.298Z,99109.75
2022-10-30T13:45:26.225Z,99104.03
2022-10-30T13:48:02.646Z,99110.00
2022-10-30T13:50:29.621Z,99104.22
2022-10-30T13:53:02.310Z,99106.63
2022-10-30T13:55:34.955Z,99097.88
2022-10-30T13:58:26.179Z,99093.53
2022-10-30T14:01:01.804Z,99093.63
2022-10-30T14:03:37.898Z,99096.66
2022-10-30T14:06:15.752Z,99112.63
2022-10-30T14:09:11.443Z,99117.56
2022-10-30T14:11:38.332Z,99107.66
2022-10-30T14:14:21.790Z,99113.16
2022-10-30T14:17:08.859Z,99110.53
2022-10-30T14:20:13.645Z,99116.59
2022-10-30T14:22:42.970Z,99121.75
2022-10-30T14:25:15.389Z,99113.41
2022-10-30T14:27:42.621Z,99110.34
2022-10-30T14:30:19.853Z,99115.56
2022-10-30T14:32:53.547Z,99117.91
2022-10-30T14:35:38.530Z,99105.97
2022-10-30T14:38:08.382Z,99107.16
2022-10-30T14:44:03.377Z,99106.84
2022-10-30T14:46:54.535Z,99111.63
2022-10-30T14:50:01.716Z,99098.09
2022-10-30T14:52:37.830Z,99102.34
2022-10-30T14:55:47.528Z,99098.34
2022-10-30T14:58:26.728Z,99099.47
2022-10-30T15:01:28.074Z,99094.31
2022-10-30T15:04:04.245Z,99096.59
2022-10-30T15:06:39.800Z,99096.16
2022-10-30T15:09:24.354Z,99102.75
2022-10-30T15:11:57.043Z,99103.13
2022-10-30T15:17:39.577Z,99118.94
2022-10-30T15:20:21.307Z,99117.53
2022-10-30T15:22:52.181Z,99115.81
2022-10-30T15:25:21.709Z,99113.38
2022-10-30T15:27:50.601Z,99111.47
2022-10-30T15:30:21.588Z,99108.81
2022-10-30T15:32:48.715Z,99103.69
2022-10-30T15:35:19.849Z,99103.31
2022-10-30T15:38:00.226Z,99106.53
2022-10-30T15:40:28.828Z,99100.44
2022-10-30T15:42:57.115Z,99098.38
2022-10-30T15:45:36.034Z,99097.81
2022-10-30T15:48:24.290Z,99107.97
2022-10-30T15:51:17.761Z,99102.25
2022-10-30T15:53:48.370Z,99102.25
2022-10-30T15:56:33.669Z,99104.16
2022-10-30T15:59:03.339Z,99104.25
2022-10-30T16:01:42.752Z,99100.94
2022-10-30T16:04:17.608Z,99099.25
2022-10-30T16:06:56.660Z,99089.75
2022-10-30T16:09:24.764Z,99093.25
2022-10-30T16:11:54.067Z,99097.59
2022-10-30T16:14:29.923Z,99087.84
2022-10-30T16:17:00.424Z,99094.19
2022-10-30T16:19:30.615Z,99091.44
2022-10-30T16:21:59.056Z,99085.28
2022-10-30T16:24:35.307Z,99092.69
2022-10-30T16:27:06.635Z,99082.22
2022-10-30T16:29:35.227Z,99078.16
2022-10-30T16:32:02.694Z,99075.03
2022-10-30T16:34:37.637Z,99076.06
2022-10-30T16:37:06.881Z,99079.09
2022-10-30T16:39:34.884Z,99084.75
2022-10-30T16:42:02.823Z,99093.94
2022-10-30T16:44:34.720Z,99095.91
2022-10-30T16:47:25.188Z,99095.41
2022-10-30T16:49:58.964Z,99102.81
2022-10-30T16:52:30.513Z,99103.66
2022-10-30T16:55:04.539Z,99099.66
2022-10-30T16:57:36.995Z,99101.63
2022-10-30T17:00:05.818Z,99100.28
2022-10-30T17:02:37.660Z,99096.16
2022-10-30T17:05:19.143Z,99097.28
2022-10-30T17:07:56.475Z,99096.94
2022-10-30T17:10:35.618Z,99080.34
2022-10-30T17:13:35.080Z,99077.97
2022-10-30T17:16:33.030Z,99076.59
2022-10-30T17:19:02.117Z,99081.88
2022-10-30T17:21:52.218Z,99093.00
2022-10-30T17:24:22.280Z,99086.19
2022-10-30T17:26:58.058Z,99096.09
2022-10-30T17:29:36.982Z,99092.69
2022-10-30T17:32:44.036Z,99098.25
2022-10-30T17:35:17.077Z,99088.75
2022-10-30T17:37:44.153Z,99091.47
2022-10-30T17:40:12.517Z,99085.31
2022-10-30T17:42:40.333Z,99086.16
2022-10-30T17:45:12.467Z,99089.78
2022-10-30T17:47:39.430Z,99091.66
2022-10-30T17:50:06.943Z,99092.75
2022-10-30T17:52:34.706Z,99082.41
2022-10-30T17:55:02.521Z,99084.13
2022-10-30T17:57:29.606Z,99083.19
2022-10-30T17:59:56.398Z,99081.38
2022-10-30T18:02:23.929Z,99084.03
2022-10-30T18:04:52.634Z,99077.88
2022-10-30T18:07:19.639Z,99089.19
2022-10-30T18:09:46.479Z,99088.22
2022-10-30T18:12:15.913Z,99088.16
2022-10-30T18:14:43.337Z,99088.16
2022-10-30T18:17:10.567Z,99087.06
2022-10-30T18:19:37.589Z,99097.72
2022-10-30T18:22:04.543Z,99106.63
2022-10-30T18:24:31.334Z,99096.88
2022-10-30T18:26:58.628Z,99096.19
2022-10-30T18:29:25.390Z,99098.06
2022-10-30T18:31:52.485Z,99096.44
2022-10-30T18:34:22.295Z,99103.72
2022-10-30T18:36:49.384Z,99103.09
2022-10-30T18:39:16.708Z,99097.19
2022-10-30T18:41:46.293Z,99095.63
2022-10-30T18:44:18.707Z,99092.47
2022-10-30T18:46:45.678Z,99093.41
2022-10-30T18:49:13.092Z,99097.41
2022-10-30T18:51:40.154Z,99094.91
2022-10-30T18:54:16.594Z,99094.16
2022-10-30T18:56:44.054Z,99091.53
2022-10-30T18:59:11.100Z,99085.34
2022-10-30T19:01:38.271Z,99073.97
2022-10-30T19:04:09.864Z,99072.34
2022-10-30T19:06:38.664Z,99071.56
2022-10-30T19:09:05.880Z,99075.19
2022-10-30T19:11:33.337Z,99075.31
2022-10-30T19:14:00.628Z,99078.13
2022-10-30T19:16:27.737Z,99079.22
2022-10-30T19:18:54.591Z,99078.13
2022-10-30T19:21:26.160Z,99069.34
2022-10-30T19:23:54.586Z,99074.56
2022-10-30T19:26:21.409Z,99089.69
2022-10-30T19:28:48.441Z,99071.94
2022-10-30T19:31:17.672Z,99074.31
2022-10-30T19:33:45.406Z,99071.69
2022-10-30T19:36:30.257Z,99071.69
2022-10-30T19:38:57.447Z,99080.47
2022-10-30T19:41:25.008Z,99086.63
2022-10-30T19:43:52.961Z,99083.03
2022-10-30T19:46:20.133Z,99084.91
2022-10-30T19:48:57.259Z,99085.06
2022-10-30T19:51:24.715Z,99080.78
2022-10-30T19:53:53.891Z,99086.41
2022-10-30T19:56:22.008Z,99094.50
2022-10-30T19:58:49.509Z,99096.38
2022-10-30T20:01:17.192Z,99099.19
2022-10-30T20:03:44.300Z,99100.22
2022-10-30T20:06:13.004Z,99107.41
2022-10-30T20:08:39.969Z,99106.69
2022-10-30T20:11:07.111Z,99110.38
2022-10-30T20:13:34.162Z,99114.97
2022-10-30T20:16:04.958Z,99109.03
2022-10-30T20:18:34.664Z,99108.44
2022-10-30T20:21:02.630Z,99115.81
2022-10-30T20:23:30.027Z,99114.13
2022-10-30T20:26:25.105Z,99107.41
2022-10-30T20:28:53.452Z,99105.63
2022-10-30T20:31:20.826Z,99106.66
2022-10-30T20:33:47.780Z,99103.06
2022-10-30T20:36:14.712Z,99100.66
2022-10-30T20:38:41.535Z,99113.81
2022-10-30T20:41:20.835Z,99102.13
2022-10-30T20:43:47.656Z,99103.00
2022-10-30T20:46:14.638Z,99098.63
2022-10-30T20:48:41.490Z,99092.41
2022-10-30T20:51:10.976Z,99098.31
2022-10-30T20:53:37.904Z,99095.13
2022-10-30T20:56:05.081Z,99092.53
2022-10-30T20:58:32.046Z,99100.47
2022-10-30T21:00:59.328Z,99090.63
2022-10-30T21:03:27.303Z,99086.19
2022-10-30T21:05:57.097Z,99090.44
2022-10-30T21:08:25.035Z,99088.75
2022-10-30T21:10:52.095Z,99088.81
2022-10-30T21:13:18.858Z,99091.53
2022-10-30T21:15:45.649Z,99095.13
2022-10-30T21:18:13.232Z,99092.72
2022-10-30T21:20:41.120Z,99099.00
2022-10-30T21:23:08.420Z,99095.59
2022-10-30T21:25:36.324Z,99094.81
2022-10-30T21:28:03.582Z,99092.09
2022-10-30T21:30:30.933Z,99091.88
2022-10-30T21:32:59.464Z,99098.63
2022-10-30T21:35:27.131Z,99094.97
2022-10-30T21:37:53.953Z,99098.56
2022-10-30T21:40:20.905Z,99099.22
2022-10-30T21:42:48.543Z,99092.47
2022-10-30T21:45:15.333Z,99102.91
2022-10-30T21:47:42.372Z,99103.06
2022-10-30T21:50:12.240Z,99104.63
2022-10-30T21:52:40.469Z,99099.47
2022-10-30T21:55:07.971Z,99108.41
2022-10-30T21:57:35.146Z,99107.72
2022-10-30T22:00:05.694Z,99103.47
2022-10-30T22:02:34.598Z,99103.34
2022-10-30T22:05:01.593Z,99102.44
2022-10-30T22:07:28.497Z,99103.47
2022-10-30T22:09:55.343Z,99100.81
2022-10-30T22:12:22.322Z,99098.16
2022-10-30T22:14:49.063Z,99100.81
2022-10-30T22:17:15.886Z,99091.16
2022-10-30T22:19:42.882Z,99101.72
2022-10-30T22:22:11.240Z,99105.16
2022-10-30T22:24:38.171Z,99104.31
2022-10-30T22:27:05.397Z,99112.06
2022-10-30T22:29:32.217Z,99108.56
2022-10-30T22:31:59.011Z,99107.72
2022-10-30T22:34:25.962Z,99115.78
2022-10-30T22:36:52.711Z,99106.22
2022-10-30T22:39:19.817Z,99112.38
2022-10-30T22:41:46.894Z,99108.88
2022-10-30T22:44:17.481Z,99107.19
2022-10-30T22:46:44.623Z,99110.06
2022-10-30T22:49:11.777Z,99107.41
2022-10-30T22:51:39.643Z,99113.84
2022-10-30T22:54:10.640Z,99109.72
2022-10-30T22:56:38.132Z,99114.22
2022-10-30T22:59:08.036Z,99110.94
2022-10-30T23:01:36.939Z,99113.66
2022-10-30T23:04:05.501Z,99112.16
2022-10-30T23:06:34.816Z,99114.91
2022-10-30T23:09:06.202Z,99120.09
2022-10-30T23:11:33.347Z,99105.31
2022-10-30T23:14:00.688Z,99108.91
2022-10-30T23:16:27.983Z,99109.97
2022-10-30T23:18:57.868Z,99107.50
2022-10-30T23:21:27.608Z,99107.56
2022-10-30T23:23:55.529Z,99111.38
2022-10-30T23:26:24.929Z,99106.13
2022-10-30T23:28:53.748Z,99106.13
2022-10-30T23:31:27.953Z,99106.94
2022-10-30T23:33:58.272Z,99108.78
2022-10-30T23:36:25.192Z,99107.94
2022-10-30T23:38:53.996Z,99105.41
2022-10-30T23:41:22.142Z,99103.63
2022-10-30T23:43:52.563Z,99098.50
2022-10-30T23:46:19.303Z,99109.06
2022-10-30T23:48:46.290Z,99112.72
2022-10-30T23:51:13.587Z,99110.06
2022-10-30T23:53:40.581Z,99109.13
2022-10-30T23:56:07.793Z,99105.00
2022-10-30T23:58:35.157Z,99111.06
